createdAt,value
2022-10-18T00:00:53.215Z,99553.28
2022-10-18T00:01:58.118Z,99547.31
2022-10-18T00:03:01.185Z,99548.34
2022-10-18T00:04:05.111Z,99548.38
2022-10-18T00:05:08.728Z,99549.31
2022-10-18T00:06:12.941Z,99552.81
2022-10-18T00:07:15.827Z,99556.25
2022-10-18T00:08:20.480Z,99553.84
2022-10-18T00:09:23.579Z,99553.88
2022-10-18T00:10:27.873Z,99555.56
2022-10-18T00:11:30.799Z,99545.28
2022-10-18T00:12:35.851Z,99555.63
2022-10-18T00:13:38.927Z,99555.72
2022-10-18T00:14:44.370Z,99556.72
2022-10-18T00:15:51.180Z,99554.13
2022-10-18T00:16:55.237Z,99551.59
2022-10-18T00:17:58.191Z,99560.31
2022-10-18T00:19:02.114Z,99556.88
2022-10-18T00:20:06.788Z,99555.03
2022-10-18T00:21:13.533Z,99558.47
2022-10-18T00:22:16.460Z,99550.53
2022-10-18T00:23:20.401Z,99560.81
2022-10-18T00:24:23.259Z,99562.59
2022-10-18T00:25:27.347Z,99559.91
2022-10-18T00:26:31.397Z,99556.44
2022-10-18T00:27:36.940Z,99559.84
2022-10-18T00:28:40.631Z,99560.59
2022-10-18T00:29:46.069Z,99558.16
2022-10-18T00:31:58.006Z,99561.66
2022-10-18T00:33:00.868Z,99560.91
2022-10-18T00:34:06.317Z,99555.81
2022-10-18T00:35:09.931Z,99553.28
2022-10-18T00:36:14.662Z,99555.13
2022-10-18T00:37:17.880Z,99554.28
2022-10-18T00:38:21.813Z,99560.31
2022-10-18T00:39:24.756Z,99558.69
2022-10-18T00:40:28.821Z,99564.03
2022-10-18T00:41:33.013Z,99558.09
2022-10-18T00:42:39.858Z,99563.34
2022-10-18T00:43:53.250Z,99556.63
2022-10-18T00:45:08.997Z,99551.47
2022-10-18T00:46:11.941Z,99553.44
2022-10-18T00:47:18.225Z,99553.53
2022-10-18T00:48:22.479Z,99556.09
2022-10-18T00:49:28.329Z,99553.53
2022-10-18T00:50:34.077Z,99556.09
2022-10-18T00:51:41.811Z,99550.94
2022-10-18T00:52:49.659Z,99556.25
2022-10-18T00:53:52.821Z,99552.06
2022-10-18T00:54:57.492Z,99546.97
2022-10-18T00:56:01.560Z,99555.59
2022-10-18T00:57:05.422Z,99550.41
2022-10-18T00:58:09.979Z,99548.72
2022-10-18T00:59:14.709Z,99550.47
2022-10-18T01:00:20.758Z,99547.03
2022-10-18T01:01:27.486Z,99542.78
2022-10-18T01:02:34.031Z,99549.78
2022-10-18T01:03:39.041Z,99545.53
2022-10-18T01:04:42.157Z,99545.53
2022-10-18T01:05:48.388Z,99539.34
2022-10-18T01:08:12.120Z,99536.84
2022-10-18T01:09:23.101Z,99534.41
2022-10-18T01:10:31.150Z,99537.91
2022-10-18T01:11:44.857Z,99551.06
2022-10-18T01:12:54.263Z,99543.38
2022-10-18T01:14:04.198Z,99533.78
2022-10-18T01:15:12.932Z,99541.53
2022-10-18T01:16:20.892Z,99539.78
2022-10-18T01:17:31.829Z,99533.69
2022-10-18T01:18:38.348Z,99539.75
2022-10-18T01:20:17.081Z,99538.81
2022-10-18T01:21:36.478Z,99540.50
2022-10-18T01:22:43.849Z,99542.16
2022-10-18T01:24:04.220Z,99543.09
2022-10-18T01:25:17.438Z,99542.16
2022-10-18T01:26:30.683Z,99546.28
2022-10-18T01:27:43.250Z,99536.63
2022-10-18T01:28:54.874Z,99538.22
2022-10-18T01:30:30.180Z,99543.25
2022-10-18T01:31:39.650Z,99536.22
2022-10-18T01:32:46.691Z,99537.06
2022-10-18T01:33:53.659Z,99538.91
2022-10-18T01:34:59.830Z,99534.63
2022-10-18T01:36:08.540Z,99541.53
2022-10-18T01:37:15.101Z,99536.53
2022-10-18T01:38:20.294Z,99539.22
2022-10-18T01:39:26.368Z,99531.50
2022-10-18T01:40:31.252Z,99532.41
2022-10-18T01:41:35.818Z,99527.25
2022-10-18T01:42:38.742Z,99524.81
2022-10-18T01:43:43.643Z,99522.28
2022-10-18T01:44:47.478Z,99523.13
2022-10-18T01:45:51.569Z,99524.88
2022-10-18T01:46:58.107Z,99530.97
2022-10-18T01:48:01.669Z,99527.63
2022-10-18T01:49:06.353Z,99521.66
2022-10-18T01:50:09.863Z,99520.09
2022-10-18T01:51:13.900Z,99521.91
2022-10-18T01:52:17.279Z,99531.41
2022-10-18T01:53:26.037Z,99526.31
2022-10-18T01:54:32.049Z,99522.06
2022-10-18T01:55:39.892Z,99515.22
2022-10-18T01:56:48.465Z,99519.63
2022-10-18T01:57:59.230Z,99514.50
2022-10-18T01:59:09.128Z,99515.50
2022-10-18T02:00:14.648Z,99508.81
2022-10-18T02:01:22.140Z,99513.22
2022-10-18T02:02:37.824Z,99516.72
2022-10-18T02:03:44.512Z,99510.84
2022-10-18T02:04:52.810Z,99516.94
2022-10-18T02:05:59.518Z,99517.00
2022-10-18T02:07:08.628Z,99512.75
2022-10-18T02:08:23.707Z,99513.72
2022-10-18T02:09:33.211Z,99516.41
2022-10-18T02:10:40.460Z,99512.13
2022-10-18T02:11:45.057Z,99516.53
2022-10-18T02:12:48.991Z,99517.44
2022-10-18T02:13:56.569Z,99516.69
2022-10-18T02:15:01.110Z,99516.69
2022-10-18T02:16:09.430Z,99511.53
2022-10-18T02:17:13.266Z,99515.84
2022-10-18T02:18:21.431Z,99515.84
2022-10-18T02:19:26.984Z,99507.22
2022-10-18T02:20:32.565Z,99513.31
2022-10-18T02:21:35.683Z,99521.25
2022-10-18T02:22:42.687Z,99515.28
2022-10-18T02:23:46.982Z,99513.63
2022-10-18T02:24:53.646Z,99511.03
2022-10-18T02:25:56.690Z,99505.88
2022-10-18T02:27:00.731Z,99511.03
2022-10-18T02:28:05.508Z,99502.44
2022-10-18T02:29:08.929Z,99502.53
2022-10-18T02:30:15.589Z,99505.94
2022-10-18T02:31:20.759Z,99502.53
2022-10-18T02:32:29.183Z,99503.34
2022-10-18T02:33:37.881Z,99504.19
2022-10-18T02:34:44.881Z,99497.25
2022-10-18T02:35:50.611Z,99492.00
2022-10-18T02:36:55.847Z,99493.69
2022-10-18T02:37:59.521Z,99496.13
2022-10-18T02:39:05.798Z,99496.88
2022-10-18T02:40:10.422Z,99495.84
2022-10-18T02:41:14.430Z,99493.31
2022-10-18T02:42:17.459Z,99491.56
2022-10-18T02:43:21.397Z,99492.56
2022-10-18T02:44:24.860Z,99497.78
2022-10-18T02:45:28.909Z,99489.13
2022-10-18T02:46:32.048Z,99496.88
2022-10-18T02:47:36.039Z,99493.41
2022-10-18T02:48:40.392Z,99488.16
2022-10-18T02:49:44.399Z,99484.81
2022-10-18T02:50:47.278Z,99489.91
2022-10-18T02:51:51.261Z,99491.56
2022-10-18T02:52:54.162Z,99483.91
2022-10-18T02:53:58.740Z,99486.41
2022-10-18T02:55:01.632Z,99488.97
2022-10-18T02:56:06.034Z,99488.97
2022-10-18T02:57:08.938Z,99493.31
2022-10-18T02:58:13.058Z,99489.91
2022-10-18T02:59:16.249Z,99492.50
2022-10-18T03:00:20.489Z,99494.28
2022-10-18T03:01:25.309Z,99496.88
2022-10-18T03:02:29.470Z,99488.38
2022-10-18T03:03:33.430Z,99495.28
2022-10-18T03:04:39.125Z,99492.78
2022-10-18T03:05:41.978Z,99495.38
2022-10-18T03:06:46.409Z,99490.25
2022-10-18T03:07:49.309Z,99498.94
2022-10-18T03:08:53.317Z,99494.75
2022-10-18T03:09:56.416Z,99484.53
2022-10-18T03:11:00.659Z,99482.88
2022-10-18T03:13:22.140Z,99481.34
2022-10-18T03:14:25.397Z,99489.84
2022-10-18T03:15:29.349Z,99491.59
2022-10-18T03:16:32.459Z,99484.69
2022-10-18T03:17:36.541Z,99492.44
2022-10-18T03:18:39.500Z,99488.19
2022-10-18T03:19:44.948Z,99487.34
2022-10-18T03:20:48.082Z,99491.69
2022-10-18T03:21:52.048Z,99485.69
2022-10-18T03:22:55.090Z,99485.69
2022-10-18T03:24:00.244Z,99487.50
2022-10-18T03:25:03.379Z,99484.22
2022-10-18T03:26:09.900Z,99477.44
2022-10-18T03:27:12.861Z,99480.81
2022-10-18T03:28:17.252Z,99482.34
2022-10-18T03:29:20.810Z,99483.94
2022-10-18T03:30:27.793Z,99479.59
2022-10-18T03:32:40.460Z,99488.25
2022-10-18T03:33:46.981Z,99486.59
2022-10-18T03:34:52.408Z,99486.66
2022-10-18T03:35:55.839Z,99487.66
2022-10-18T03:37:02.146Z,99490.31
2022-10-18T03:38:07.720Z,99484.34
2022-10-18T03:39:13.279Z,99487.84
2022-10-18T03:40:16.461Z,99484.44
2022-10-18T03:41:21.092Z,99488.91
2022-10-18T03:42:24.112Z,99482.91
2022-10-18T03:43:28.594Z,99491.50
2022-10-18T03:44:31.609Z,99485.44
2022-10-18T03:45:35.751Z,99478.56
2022-10-18T03:46:38.978Z,99486.31
2022-10-18T03:47:43.603Z,99477.72
2022-10-18T03:48:47.627Z,99481.94
2022-10-18T03:49:56.246Z,99478.44
2022-10-18T03:51:01.450Z,99477.59
2022-10-18T03:52:04.357Z,99483.59
2022-10-18T03:53:11.283Z,99477.59
2022-10-18T03:54:14.490Z,99493.94
2022-10-18T03:55:18.951Z,99483.59
2022-10-18T03:56:21.820Z,99485.44
2022-10-18T03:57:26.318Z,99487.09
2022-10-18T03:58:29.242Z,99487.16
2022-10-18T03:59:33.389Z,99488.97
2022-10-18T04:00:39.256Z,99492.56
2022-10-18T04:01:43.231Z,99488.44
2022-10-18T04:02:50.800Z,99491.94
2022-10-18T04:03:57.709Z,99490.25
2022-10-18T04:05:02.262Z,99494.66
2022-10-18T04:06:08.037Z,99497.31
2022-10-18T04:07:11.177Z,99488.78
2022-10-18T04:08:15.249Z,99494.88
2022-10-18T04:09:18.651Z,99496.63
2022-10-18T04:10:25.804Z,99494.78
2022-10-18T04:11:28.667Z,99491.31
2022-10-18T04:12:33.319Z,99491.22
2022-10-18T04:13:36.609Z,99494.66
2022-10-18T04:14:40.551Z,99490.31
2022-10-18T04:15:43.899Z,99495.41
2022-10-18T04:16:47.837Z,99496.25
2022-10-18T04:17:51.019Z,99496.13
2022-10-18T04:18:55.223Z,99501.00
2022-10-18T04:19:58.452Z,99499.88
2022-10-18T04:21:03.860Z,99497.06
2022-10-18T04:22:06.887Z,99497.22
2022-10-18T04:23:10.960Z,99500.78
2022-10-18T04:24:14.352Z,99498.38
2022-10-18T04:25:18.727Z,99503.44
2022-10-18T04:26:22.050Z,99499.25
2022-10-18T04:27:26.052Z,99499.25
2022-10-18T04:28:29.196Z,99503.66
2022-10-18T04:29:33.160Z,99501.22
2022-10-18T04:30:36.399Z,99504.72
2022-10-18T04:31:40.327Z,99504.72
2022-10-18T04:32:43.266Z,99506.53
2022-10-18T04:33:47.400Z,99510.03
2022-10-18T04:34:50.816Z,99500.75
2022-10-18T04:35:55.125Z,99508.53
2022-10-18T04:37:00.529Z,99504.28
2022-10-18T04:38:03.478Z,99505.22
2022-10-18T04:39:07.427Z,99509.47
2022-10-18T04:40:12.501Z,99509.47
2022-10-18T04:41:16.517Z,99503.53
2022-10-18T04:42:19.567Z,99501.78
2022-10-18T04:43:23.505Z,99503.53
2022-10-18T04:44:26.389Z,99502.63
2022-10-18T04:45:30.449Z,99506.03
2022-10-18T04:46:34.430Z,99504.38
2022-10-18T04:47:38.700Z,99506.97
2022-10-18T04:48:42.018Z,99510.47
2022-10-18T04:49:46.845Z,99509.63
2022-10-18T04:50:50.102Z,99506.19
2022-10-18T04:51:54.250Z,99513.09
2022-10-18T04:52:58.602Z,99506.25
2022-10-18T04:54:02.561Z,99504.50
2022-10-18T04:55:07.421Z,99507.03
2022-10-18T04:56:10.365Z,99501.03
2022-10-18T04:57:14.291Z,99495.84
2022-10-18T04:58:17.538Z,99498.50
2022-10-18T04:59:21.990Z,99505.28
2022-10-18T05:00:25.608Z,99499.19
2022-10-18T05:01:29.755Z,99498.28
2022-10-18T05:02:32.881Z,99495.63
2022-10-18T05:03:36.988Z,99505.00
2022-10-18T05:04:40.038Z,99506.66
2022-10-18T05:06:03.247Z,99500.53
2022-10-18T05:07:06.810Z,99503.03
2022-10-18T05:08:12.221Z,99494.38
2022-10-18T05:09:15.538Z,99498.63
2022-10-18T05:10:19.888Z,99502.81
2022-10-18T05:11:22.986Z,99499.31
2022-10-18T05:12:27.043Z,99496.75
2022-10-18T05:13:30.483Z,99496.75
2022-10-18T05:14:34.450Z,99500.09
2022-10-18T05:15:37.357Z,99502.53
2022-10-18T05:16:41.379Z,99505.81
2022-10-18T05:17:44.409Z,99510.84
2022-10-18T05:18:48.484Z,99509.03
2022-10-18T05:19:51.381Z,99509.78
2022-10-18T05:20:55.450Z,99506.28
2022-10-18T05:21:58.454Z,99500.19
2022-10-18T05:23:02.408Z,99502.66
2022-10-18T05:24:07.177Z,99504.94
2022-10-18T05:25:11.566Z,99496.88
2022-10-18T05:26:14.510Z,99510.38
2022-10-18T05:27:18.517Z,99505.75
2022-10-18T05:28:38.763Z,99501.09
2022-10-18T05:29:43.889Z,99502.50
2022-10-18T05:30:46.893Z,99508.19
2022-10-18T05:31:51.112Z,99505.47
2022-10-18T05:32:54.946Z,99504.38
2022-10-18T05:33:59.180Z,99500.66
2022-10-18T05:35:02.499Z,99497.69
2022-10-18T05:36:07.139Z,99492.06
2022-10-18T05:37:10.367Z,99492.34
2022-10-18T05:38:14.513Z,99497.81
2022-10-18T05:39:20.499Z,99492.06
2022-10-18T05:40:23.509Z,99495.75
2022-10-18T05:41:27.617Z,99498.50
2022-10-18T05:42:31.114Z,99504.50
2022-10-18T05:43:36.100Z,99500.78
2022-10-18T05:44:39.111Z,99507.50
2022-10-18T05:45:49.165Z,99504.72
2022-10-18T05:46:53.245Z,99502.00
2022-10-18T05:47:56.390Z,99503.38
2022-10-18T05:49:00.576Z,99503.97
2022-10-18T05:50:03.761Z,99498.72
2022-10-18T05:51:07.907Z,99491.94
2022-10-18T05:52:10.808Z,99492.91
2022-10-18T05:53:35.202Z,99494.56
2022-10-18T05:54:40.161Z,99487.31
2022-10-18T05:55:44.223Z,99492.31
2022-10-18T05:56:47.327Z,99491.19
2022-10-18T05:57:51.595Z,99492.63
2022-10-18T05:58:54.619Z,99494.13
2022-10-18T05:59:58.598Z,99496.59
2022-10-18T06:01:02.384Z,99491.94
2022-10-18T06:02:06.541Z,99496.88
2022-10-18T06:03:09.449Z,99496.47
2022-10-18T06:04:13.707Z,99492.00
2022-10-18T06:05:16.757Z,99491.91
2022-10-18T06:06:20.790Z,99493.78
2022-10-18T06:07:23.786Z,99498.44
2022-10-18T06:08:27.848Z,99487.50
2022-10-18T06:09:30.907Z,99492.78
2022-10-18T06:10:36.468Z,99490.09
2022-10-18T06:11:39.430Z,99494.44
2022-10-18T06:12:43.509Z,99489.50
2022-10-18T06:13:48.813Z,99489.88
2022-10-18T06:14:51.782Z,99493.50
2022-10-18T06:15:57.725Z,99496.28
2022-10-18T06:17:00.708Z,99495.59
2022-10-18T06:18:04.781Z,99502.56
2022-10-18T06:19:07.830Z,99491.19
2022-10-18T06:20:12.337Z,99492.16
2022-10-18T06:21:15.460Z,99504.78
2022-10-18T06:22:19.582Z,99499.34
2022-10-18T06:23:22.580Z,99501.69
2022-10-18T06:24:26.888Z,99503.75
2022-10-18T06:25:29.838Z,99506.84
2022-10-18T06:26:35.328Z,99494.06
2022-10-18T06:27:38.259Z,99499.50
2022-10-18T06:28:42.281Z,99500.59
2022-10-18T06:29:46.370Z,99506.06
2022-10-18T06:30:49.441Z,99496.81
2022-10-18T06:31:53.436Z,99502.66
2022-10-18T06:32:59.793Z,99500.28
2022-10-18T06:34:04.640Z,99506.84
2022-10-18T06:35:08.632Z,99496.00
2022-10-18T06:36:14.906Z,99500.75
2022-10-18T06:37:18.010Z,99503.50
2022-10-18T06:38:22.143Z,99503.38
2022-10-18T06:39:26.357Z,99499.91
2022-10-18T06:40:31.038Z,99509.16
2022-10-18T06:41:36.483Z,99500.31
2022-10-18T06:43:00.654Z,99497.41
2022-10-18T06:44:14.117Z,99499.25
2022-10-18T06:45:18.563Z,99500.44
2022-10-18T06:46:22.490Z,99499.78
2022-10-18T06:47:25.490Z,99502.75
2022-10-18T06:48:29.428Z,99497.97
2022-10-18T06:49:32.320Z,99494.72
2022-10-18T06:50:36.389Z,99496.72
2022-10-18T06:51:40.479Z,99492.34
2022-10-18T06:52:43.660Z,99489.91
2022-10-18T06:54:05.922Z,99491.78
2022-10-18T06:55:11.819Z,99486.44
2022-10-18T06:56:14.718Z,99492.69
2022-10-18T06:57:20.491Z,99491.06
2022-10-18T06:58:23.414Z,99493.72
2022-10-18T06:59:30.374Z,99493.63
2022-10-18T07:00:34.493Z,99487.44
2022-10-18T07:01:38.690Z,99489.28
2022-10-18T07:02:42.857Z,99493.88
2022-10-18T07:03:46.762Z,99487.22
2022-10-18T07:04:50.818Z,99491.97
2022-10-18T07:05:53.795Z,99494.06
2022-10-18T07:06:57.801Z,99496.13
2022-10-18T07:08:00.751Z,99498.09
2022-10-18T07:09:05.002Z,99490.63
2022-10-18T07:10:11.190Z,99492.84
2022-10-18T07:11:18.724Z,99497.81
2022-10-18T07:12:23.186Z,99497.56
2022-10-18T07:13:32.911Z,99491.31
2022-10-18T07:14:36.310Z,99496.16
2022-10-18T07:15:40.321Z,99488.44
2022-10-18T07:16:44.386Z,99490.34
2022-10-18T07:17:48.126Z,99489.81
2022-10-18T07:18:53.398Z,99497.28
2022-10-18T07:19:56.409Z,99490.91
2022-10-18T07:21:03.081Z,99500.88
2022-10-18T07:22:07.268Z,99495.19
2022-10-18T07:23:11.947Z,99494.78
2022-10-18T07:24:16.132Z,99501.94
2022-10-18T07:25:19.117Z,99494.47
2022-10-18T07:26:25.151Z,99500.84
2022-10-18T07:27:30.942Z,99494.75
2022-10-18T07:28:34.927Z,99497.59
2022-10-18T07:29:39.929Z,99496.78
2022-10-18T07:30:43.008Z,99493.47
2022-10-18T07:31:47.278Z,99504.91
2022-10-18T07:32:52.883Z,99493.56
2022-10-18T07:33:55.780Z,99493.56
2022-10-18T07:34:59.840Z,99490.84
2022-10-18T07:36:03.201Z,99496.09
2022-10-18T07:37:07.309Z,99491.78
2022-10-18T07:38:10.440Z,99492.63
2022-10-18T07:39:14.572Z,99492.50
2022-10-18T07:40:17.758Z,99491.53
2022-10-18T07:41:22.537Z,99488.53
2022-10-18T07:42:25.800Z,99493.63
2022-10-18T07:43:31.851Z,99489.09
2022-10-18T07:44:34.909Z,99493.91
2022-10-18T07:45:39.096Z,99496.44
2022-10-18T07:46:43.240Z,99487.31
2022-10-18T07:47:46.684Z,99487.00
2022-10-18T07:48:51.311Z,99491.03
2022-10-18T07:49:56.137Z,99493.41
2022-10-18T07:51:00.537Z,99486.06
2022-10-18T07:52:05.057Z,99484.81
2022-10-18T07:53:08.096Z,99489.66
2022-10-18T07:54:12.079Z,99486.78
2022-10-18T07:55:16.370Z,99477.50
2022-10-18T07:56:22.668Z,99489.25
2022-10-18T07:57:26.760Z,99488.84
2022-10-18T07:58:32.738Z,99483.13
2022-10-18T07:59:37.022Z,99486.19
2022-10-18T08:00:40.094Z,99480.38
2022-10-18T08:01:44.250Z,99479.81
2022-10-18T08:02:47.361Z,99477.59
2022-10-18T08:03:53.180Z,99473.41
2022-10-18T08:04:57.445Z,99473.81
2022-10-18T08:06:00.570Z,99465.34
2022-10-18T08:07:04.577Z,99471.84
2022-10-18T08:08:08.182Z,99464.50
2022-10-18T08:09:12.572Z,99457.16
2022-10-18T08:10:15.776Z,99450.50
2022-10-18T08:11:22.039Z,99453.69
2022-10-18T08:12:26.008Z,99457.53
2022-10-18T08:13:30.710Z,99453.63
2022-10-18T08:14:34.728Z,99449.59
2022-10-18T08:15:37.592Z,99455.28
2022-10-18T08:16:41.652Z,99452.03
2022-10-18T08:17:44.631Z,99456.72
2022-10-18T08:18:48.640Z,99454.63
2022-10-18T08:20:11.353Z,99459.31
2022-10-18T08:21:18.163Z,99456.75
2022-10-18T08:22:23.018Z,99459.78
2022-10-18T08:23:27.128Z,99454.22
2022-10-18T08:24:31.120Z,99453.78
2022-10-18T08:25:34.115Z,99453.19
2022-10-18T08:26:38.109Z,99450.25
2022-10-18T08:27:41.009Z,99448.00
2022-10-18T08:28:54.129Z,99443.94
2022-10-18T08:30:03.050Z,99440.84
2022-10-18T08:31:07.210Z,99441.22
2022-10-18T08:32:11.228Z,99438.97
2022-10-18T08:33:14.328Z,99438.69
2022-10-18T08:34:19.792Z,99443.34
2022-10-18T08:35:23.049Z,99437.78
2022-10-18T08:36:27.430Z,99445.25
2022-10-18T08:37:30.963Z,99437.00
2022-10-18T08:38:35.548Z,99434.75
2022-10-18T08:39:38.402Z,99440.53
2022-10-18T08:40:44.937Z,99443.72
2022-10-18T08:42:09.649Z,99433.38
2022-10-18T08:43:21.747Z,99428.47
2022-10-18T08:44:29.248Z,99426.34
2022-10-18T08:45:43.126Z,99424.22
2022-10-18T08:46:48.466Z,99425.56
2022-10-18T08:47:54.059Z,99426.09
2022-10-18T08:48:57.567Z,99423.13
2022-10-18T08:50:04.128Z,99422.66
2022-10-18T08:51:14.709Z,99420.53
2022-10-18T08:52:31.476Z,99428.81
2022-10-18T08:53:45.609Z,99423.06
2022-10-18T08:54:54.889Z,99424.44
2022-10-18T08:56:04.470Z,99418.81
2022-10-18T08:57:15.238Z,99422.81
2022-10-18T08:58:21.474Z,99422.16
2022-10-18T08:59:25.876Z,99416.41
2022-10-18T09:00:34.997Z,99415.16
2022-10-18T09:01:44.702Z,99414.50
2022-10-18T09:02:57.501Z,99410.41
2022-10-18T09:04:19.601Z,99410.09
2022-10-18T09:05:28.888Z,99413.91
2022-10-18T09:06:34.406Z,99412.63
2022-10-18T09:08:13.136Z,99404.34
2022-10-18T09:09:25.087Z,99402.72
2022-10-18T09:10:36.576Z,99406.38
2022-10-18T09:11:52.348Z,99408.88
2022-10-18T09:13:09.479Z,99405.09
2022-10-18T09:14:46.118Z,99410.25
2022-10-18T09:15:56.981Z,99405.13
2022-10-18T09:17:09.548Z,99400.97
2022-10-18T09:18:26.157Z,99404.78
2022-10-18T09:19:39.679Z,99403.50
2022-10-18T09:20:51.652Z,99404.84
2022-10-18T09:21:57.124Z,99405.47
2022-10-18T09:23:06.589Z,99390.28
2022-10-18T09:24:13.636Z,99397.06
2022-10-18T09:25:21.066Z,99400.38
2022-10-18T09:26:26.377Z,99386.97
2022-10-18T09:27:33.910Z,99396.25
2022-10-18T09:28:43.322Z,99397.06
2022-10-18T09:29:58.557Z,99402.19
2022-10-18T09:31:08.597Z,99404.34
2022-10-18T09:32:22.832Z,99398.03
2022-10-18T09:33:35.257Z,99402.00
2022-10-18T09:34:43.382Z,99395.41
2022-10-18T09:35:51.368Z,99394.22
2022-10-18T09:36:56.176Z,99395.03
2022-10-18T09:38:04.059Z,99388.94
2022-10-18T09:39:13.071Z,99397.53
2022-10-18T09:40:19.127Z,99402.50
2022-10-18T09:41:27.079Z,99396.03
2022-10-18T09:42:33.394Z,99393.88
2022-10-18T09:43:47.686Z,99404.13
2022-10-18T09:44:54.727Z,99389.72
2022-10-18T09:45:59.208Z,99391.22
2022-10-18T09:47:13.409Z,99375.00
2022-10-18T09:48:22.196Z,99380.63
2022-10-18T09:49:31.487Z,99383.22
2022-10-18T09:50:38.107Z,99378.44
2022-10-18T09:51:43.609Z,99385.19
2022-10-18T09:52:51.289Z,99378.91
2022-10-18T09:54:04.572Z,99380.38
2022-10-18T09:55:14.149Z,99386.00
2022-10-18T09:56:21.817Z,99373.41
2022-10-18T09:57:27.891Z,99373.91
2022-10-18T09:58:41.944Z,99372.59
2022-10-18T09:59:48.319Z,99371.25
2022-10-18T10:00:52.344Z,99366.41
2022-10-18T10:01:56.728Z,99364.44
2022-10-18T10:03:01.599Z,99368.56
2022-10-18T10:04:06.068Z,99365.91
2022-10-18T10:05:14.133Z,99369.03
2022-10-18T10:06:23.723Z,99371.31
2022-10-18T10:07:32.672Z,99369.16
2022-10-18T10:08:38.199Z,99364.69
2022-10-18T10:09:46.352Z,99368.00
2022-10-18T10:10:49.891Z,99364.34
2022-10-18T10:11:55.859Z,99359.88
2022-10-18T10:13:07.050Z,99359.53
2022-10-18T10:14:13.870Z,99353.22
2022-10-18T10:15:20.869Z,99349.75
2022-10-18T10:16:24.057Z,99342.78
2022-10-18T10:17:30.628Z,99348.06
2022-10-18T10:18:38.546Z,99352.56
2022-10-18T10:19:57.202Z,99346.91
2022-10-18T10:21:03.441Z,99350.56
2022-10-18T10:22:09.757Z,99346.28
2022-10-18T10:23:20.119Z,99343.63
2022-10-18T10:24:30.392Z,99343.25
2022-10-18T10:25:36.088Z,99335.97
2022-10-18T10:26:40.274Z,99340.28
2022-10-18T10:27:46.129Z,99330.31
2022-10-18T10:28:49.485Z,99333.63
2022-10-18T10:30:04.199Z,99328.13
2022-10-18T10:31:26.519Z,99323.31
2022-10-18T10:32:31.881Z,99331.09
2022-10-18T10:33:40.779Z,99326.44
2022-10-18T10:34:44.968Z,99327.72
2022-10-18T10:35:59.811Z,99325.56
2022-10-18T10:37:03.019Z,99320.91
2022-10-18T10:38:07.838Z,99317.72
2022-10-18T10:39:18.549Z,99314.53
2022-10-18T10:40:25.242Z,99312.34
2022-10-18T10:42:59.935Z,99316.75
2022-10-18T10:44:17.619Z,99305.97
2022-10-18T10:45:21.088Z,99307.47
2022-10-18T10:46:26.630Z,99307.09
2022-10-18T10:47:32.168Z,99298.78
2022-10-18T10:48:47.610Z,99302.75
2022-10-18T10:49:50.581Z,99296.44
2022-10-18T10:50:58.676Z,99305.69
2022-10-18T10:52:26.310Z,99298.34
2022-10-18T10:53:30.639Z,99299.03
2022-10-18T10:54:36.936Z,99293.72
2022-10-18T10:55:39.809Z,99292.31
2022-10-18T10:56:54.226Z,99285.84
2022-10-18T10:57:57.185Z,99285.03
2022-10-18T10:59:08.646Z,99285.84
2022-10-18T11:00:36.356Z,99282.19
2022-10-18T11:01:40.370Z,99281.16
2022-10-18T11:02:51.133Z,99277.97
2022-10-18T11:04:26.115Z,99275.41
2022-10-18T11:05:29.629Z,99280.34
2022-10-18T11:06:50.097Z,99271.38
2022-10-18T11:07:55.486Z,99267.91
2022-10-18T11:09:00.619Z,99273.03
2022-10-18T11:10:07.952Z,99258.78
2022-10-18T11:11:20.633Z,99265.72
2022-10-18T11:12:33.499Z,99259.41
2022-10-18T11:13:56.994Z,99262.88
2022-10-18T11:15:22.412Z,99249.41
2022-10-18T11:16:32.988Z,99258.03
2022-10-18T11:17:43.523Z,99258.47
2022-10-18T11:18:50.910Z,99254.63
2022-10-18T11:20:07.740Z,99261.03
2022-10-18T11:21:13.661Z,99253.69
2022-10-18T11:22:19.525Z,99255.38
2022-10-18T11:23:27.419Z,99246.59
2022-10-18T11:24:31.299Z,99250.69
2022-10-18T11:25:49.255Z,99242.38
2022-10-18T11:26:56.348Z,99245.03
2022-10-18T11:28:03.291Z,99248.50
2022-10-18T11:29:25.147Z,99247.28
2022-10-18T11:30:38.098Z,99249.41
2022-10-18T11:31:48.057Z,99245.72
2022-10-18T11:32:58.858Z,99243.88
2022-10-18T11:34:14.850Z,99240.41
2022-10-18T11:35:34.579Z,99232.31
2022-10-18T11:36:54.793Z,99227.00
2022-10-18T11:38:15.626Z,99237.44
2022-10-18T11:39:24.432Z,99239.06
2022-10-18T11:40:43.889Z,99233.81
2022-10-18T11:41:51.100Z,99231.25
2022-10-18T11:42:59.310Z,99234.63
2022-10-18T11:44:04.999Z,99236.53
2022-10-18T11:45:19.459Z,99225.50
2022-10-18T11:46:30.200Z,99229.81
2022-10-18T11:47:39.958Z,99225.31
2022-10-18T11:49:00.848Z,99226.13
2022-10-18T11:50:12.318Z,99223.06
2022-10-18T11:51:34.124Z,99218.31
2022-10-18T11:52:47.364Z,99218.50
2022-10-18T11:54:00.178Z,99217.28
2022-10-18T11:55:17.671Z,99216.28
2022-10-18T11:56:23.782Z,99217.28
2022-10-18T11:57:41.191Z,99202.34
2022-10-18T11:58:55.522Z,99203.38
2022-10-18T12:00:04.452Z,99205.63
2022-10-18T12:01:18.355Z,99200.31
2022-10-18T12:02:39.971Z,99205.28
2022-10-18T12:03:54.682Z,99197.75
2022-10-18T12:06:32.078Z,99195.16
2022-10-18T12:07:38.972Z,99187.19
2022-10-18T12:08:45.048Z,99190.47
2022-10-18T12:09:50.073Z,99187.44
2022-10-18T12:11:05.525Z,99180.06
2022-10-18T12:12:14.210Z,99185.22
2022-10-18T12:13:19.699Z,99187.69
2022-10-18T12:14:27.514Z,99190.16
2022-10-18T12:15:32.267Z,99178.50
2022-10-18T12:17:07.726Z,99180.31
2022-10-18T12:18:06.085Z,99178.69
2022-10-18T12:19:15.161Z,99176.03
2022-10-18T12:20:24.789Z,99161.72
2022-10-18T12:21:32.683Z,99163.56
2022-10-18T12:22:38.728Z,99158.03
2022-10-18T12:23:46.928Z,99159.50
2022-10-18T12:24:50.182Z,99158.13
2022-10-18T12:25:58.440Z,99154.22
2022-10-18T12:27:03.066Z,99147.53
2022-10-18T12:28:10.259Z,99141.63
2022-10-18T12:29:19.947Z,99134.09
2022-10-18T12:30:29.758Z,99151.69
2022-10-18T12:31:39.034Z,99142.69
2022-10-18T12:32:56.455Z,99145.00
2022-10-18T12:34:25.811Z,99147.31
2022-10-18T12:35:32.641Z,99137.34
2022-10-18T12:36:51.806Z,99130.66
2022-10-18T12:38:07.138Z,99132.97
2022-10-18T12:39:14.427Z,99131.59
2022-10-18T12:40:21.423Z,99136.34
2022-10-18T12:41:27.501Z,99131.91
2022-10-18T12:42:32.050Z,99117.84
2022-10-18T12:43:37.882Z,99124.03
2022-10-18T12:44:40.822Z,99122.25
2022-10-18T12:45:53.628Z,99117.94
2022-10-18T12:46:59.571Z,99120.25
2022-10-18T12:48:05.058Z,99109.41
2022-10-18T12:49:12.820Z,99105.69
2022-10-18T12:50:28.610Z,99114.28
2022-10-18T12:51:32.639Z,99113.47
2022-10-18T12:52:37.417Z,99115.91
2022-10-18T12:53:42.850Z,99114.25
2022-10-18T12:55:04.490Z,99119.41
2022-10-18T12:56:38.278Z,99119.75
2022-10-18T12:58:15.672Z,99119.72
2022-10-18T12:59:54.007Z,99114.91
2022-10-18T13:00:58.871Z,99112.84
2022-10-18T13:02:29.179Z,99107.81
2022-10-18T13:04:01.279Z,99103.81
2022-10-18T13:05:54.878Z,99108.31
2022-10-18T13:07:19.884Z,99101.97
2022-10-18T13:08:39.981Z,99109.88
2022-10-18T13:09:46.369Z,99105.38
2022-10-18T13:11:33.511Z,99107.44
2022-10-18T13:12:59.017Z,99099.16
2022-10-18T13:14:59.263Z,99102.38
2022-10-18T13:17:01.655Z,99098.38
2022-10-18T13:18:12.247Z,99100.06
2022-10-18T13:19:22.169Z,99101.28